Weather Center

VHHH METAR :
VHHH 261130Z 10011KT CAVOK 25/19 Q1012 NOSIG

VHHH TAF :
VHHH 261100Z 2612/2718 07010KT 9999 FEW040 TX29/2706Z TN23/2622Z

VMMC METAR :
VMMCH

VMMC TAF :
VMMC 261100Z 2612/2718 11010KT 9999 FEW040
TEMPO 2620/2704 04008KT

Comments are closed